createdAt,value
2022-08-16T00:01:59.836Z,2.10
2022-08-16T00:04:30.755Z,1.80
2022-08-16T00:07:00.667Z,1.50
2022-08-16T00:09:36.087Z,2.00
2022-08-16T00:12:06.613Z,1.70
2022-08-16T00:14:36.427Z,1.90
2022-08-16T00:17:18.551Z,1.80
2022-08-16T00:19:53.682Z,1.80
2022-08-16T00:22:25.540Z,2.00
2022-08-16T00:24:57.574Z,1.80
2022-08-16T00:27:27.608Z,1.70
2022-08-16T00:30:08.754Z,1.90
2022-08-16T00:32:52.039Z,1.80
2022-08-16T00:35:32.162Z,2.10
2022-08-16T00:38:41.240Z,1.80
2022-08-16T00:40:57.695Z,2.00
2022-08-16T00:43:43.392Z,2.90
2022-08-16T00:46:33.671Z,4.00
2022-08-16T00:49:17.564Z,2.30
2022-08-16T00:51:55.242Z,2.40
2022-08-16T00:54:30.592Z,2.20
2022-08-16T00:57:04.757Z,1.90
2022-08-16T00:59:49.309Z,2.00
2022-08-16T01:02:31.782Z,2.80
2022-08-16T01:05:16.035Z,2.40
2022-08-16T01:07:52.145Z,2.20
2022-08-16T01:10:33.369Z,2.20
2022-08-16T01:13:12.168Z,2.00
2022-08-16T01:15:53.930Z,2.30
2022-08-16T01:18:39.030Z,2.00
2022-08-16T01:21:24.034Z,1.90
2022-08-16T01:24:52.614Z,1.70
2022-08-16T01:27:30.676Z,1.50
2022-08-16T01:30:21.918Z,1.50
2022-08-16T01:33:14.511Z,1.60
2022-08-16T01:35:58.296Z,1.80
2022-08-16T01:38:34.755Z,1.80
2022-08-16T01:41:12.517Z,1.70
2022-08-16T01:43:54.323Z,2.10
2022-08-16T01:46:42.826Z,2.00
2022-08-16T01:49:26.144Z,2.00
2022-08-16T01:52:28.060Z,2.00
2022-08-16T01:55:01.035Z,2.30
2022-08-16T01:57:32.137Z,2.40
2022-08-16T02:00:19.578Z,2.40
2022-08-16T02:02:52.095Z,2.10
2022-08-16T02:05:23.595Z,2.70
2022-08-16T02:07:53.664Z,1.90
2022-08-16T02:10:25.868Z,2.00
2022-08-16T02:13:00.155Z,1.60
2022-08-16T02:15:40.353Z,2.30
2022-08-16T02:18:12.905Z,1.90
2022-08-16T02:20:45.690Z,2.50
2022-08-16T02:23:18.831Z,2.80
2022-08-16T02:25:52.516Z,2.90
2022-08-16T02:28:25.890Z,3.40
2022-08-16T02:30:59.751Z,2.80
2022-08-16T02:33:43.390Z,2.60
2022-08-16T02:36:47.103Z,1.60
2022-08-16T02:39:07.355Z,1.90
2022-08-16T02:41:39.991Z,1.30
2022-08-16T02:44:13.607Z,2.00
2022-08-16T02:46:50.274Z,2.00
2022-08-16T02:49:58.437Z,1.70
2022-08-16T02:52:25.005Z,1.70
2022-08-16T02:55:00.270Z,1.80
2022-08-16T02:57:32.032Z,2.80
2022-08-16T03:00:04.179Z,2.90
2022-08-16T03:02:57.370Z,3.10
2022-08-16T03:05:30.781Z,2.60
2022-08-16T03:08:01.489Z,2.60
2022-08-16T03:10:33.521Z,2.80
2022-08-16T03:13:03.839Z,3.30
2022-08-16T03:15:42.360Z,3.90
2022-08-16T03:18:18.529Z,3.50
2022-08-16T03:21:02.218Z,3.40
2022-08-16T03:23:35.528Z,3.70
2022-08-16T03:26:05.751Z,4.50
2022-08-16T03:28:35.513Z,4.50
2022-08-16T03:31:04.987Z,4.80
2022-08-16T03:33:36.740Z,4.80
2022-08-16T03:36:30.349Z,4.60
2022-08-16T03:38:57.368Z,5.00
2022-08-16T03:41:29.545Z,3.80
2022-08-16T03:44:43.770Z,4.30
2022-08-16T03:47:10.041Z,4.20
2022-08-16T03:49:40.108Z,4.00
2022-08-16T03:52:12.149Z,3.80
2022-08-16T03:54:57.528Z,4.90
2022-08-16T03:57:31.991Z,4.50
2022-08-16T04:00:35.894Z,4.40
2022-08-16T04:03:10.860Z,4.60
2022-08-16T04:05:47.269Z,5.00
2022-08-16T04:08:23.184Z,4.60
2022-08-16T04:10:58.815Z,4.60
2022-08-16T04:13:59.995Z,4.70
2022-08-16T04:16:26.076Z,5.10
2022-08-16T04:19:02.776Z,4.40
2022-08-16T04:21:47.455Z,4.40
2022-08-16T04:24:16.983Z,4.00
2022-08-16T04:26:46.861Z,3.90
2022-08-16T04:29:23.566Z,4.30
2022-08-16T04:31:57.935Z,4.20
2022-08-16T04:34:34.539Z,4.00
2022-08-16T04:37:05.187Z,3.80
2022-08-16T04:39:46.938Z,3.80
2022-08-16T04:42:29.719Z,3.20
2022-08-16T04:45:05.523Z,2.80
2022-08-16T04:47:36.217Z,2.80
2022-08-16T04:50:19.394Z,3.30
2022-08-16T04:52:51.897Z,3.30
2022-08-16T04:55:37.534Z,3.40
2022-08-16T04:58:43.711Z,3.70
2022-08-16T05:00:59.424Z,3.10
2022-08-16T05:03:29.248Z,4.00
2022-08-16T05:06:04.986Z,3.70
2022-08-16T05:08:36.654Z,4.30
2022-08-16T05:11:11.200Z,3.40
2022-08-16T05:13:45.258Z,3.90
2022-08-16T05:16:24.237Z,3.80
2022-08-16T05:18:58.312Z,3.10
2022-08-16T05:21:38.501Z,2.90
2022-08-16T05:24:09.992Z,3.50
2022-08-16T05:26:40.943Z,3.10
2022-08-16T05:29:15.200Z,3.60
2022-08-16T05:31:48.362Z,3.30
2022-08-16T05:34:22.985Z,3.30
2022-08-16T05:36:58.839Z,3.20
2022-08-16T05:39:30.209Z,3.50
2022-08-16T05:42:03.427Z,2.90
2022-08-16T05:44:32.833Z,2.90
2022-08-16T05:47:04.137Z,2.90
2022-08-16T05:49:38.393Z,2.60
2022-08-16T05:52:17.279Z,2.50
2022-08-16T05:55:00.999Z,2.80
2022-08-16T05:57:35.538Z,2.40
2022-08-16T06:00:22.404Z,2.50
2022-08-16T06:02:52.371Z,2.60
2022-08-16T06:05:23.027Z,2.60
2022-08-16T06:07:59.031Z,2.50
2022-08-16T06:10:34.519Z,2.40
2022-08-16T06:13:03.871Z,2.50
2022-08-16T06:15:33.259Z,2.30
2022-08-16T06:18:04.427Z,2.50
2022-08-16T06:20:35.259Z,3.00
2022-08-16T06:23:16.861Z,3.20
2022-08-16T06:25:52.939Z,3.00
2022-08-16T06:28:34.983Z,2.90
2022-08-16T06:31:12.258Z,2.30
2022-08-16T06:33:44.797Z,2.80
2022-08-16T06:36:16.447Z,2.80
2022-08-16T06:38:55.558Z,2.60
2022-08-16T06:41:27.649Z,2.80
2022-08-16T06:43:57.744Z,2.50
2022-08-16T06:46:38.824Z,2.80
2022-08-16T06:49:11.857Z,2.90
2022-08-16T06:51:48.050Z,2.70
2022-08-16T06:54:18.541Z,3.00
2022-08-16T06:56:47.801Z,2.40
2022-08-16T06:59:25.630Z,2.50
2022-08-16T07:01:58.338Z,2.70
2022-08-16T07:04:32.832Z,2.70
2022-08-16T07:07:04.648Z,2.60
2022-08-16T07:09:35.382Z,2.70
2022-08-16T07:12:05.891Z,2.40
2022-08-16T07:14:36.220Z,2.50
2022-08-16T07:17:11.372Z,2.60
2022-08-16T07:20:03.131Z,2.50
2022-08-16T07:22:37.720Z,2.30
2022-08-16T07:25:16.080Z,2.40
2022-08-16T07:27:47.020Z,2.50
2022-08-16T07:30:39.272Z,2.10
2022-08-16T07:33:10.503Z,2.30
2022-08-16T07:35:49.772Z,2.60
2022-08-16T07:38:31.635Z,2.80
2022-08-16T07:41:10.290Z,2.70
2022-08-16T07:43:41.611Z,2.90
2022-08-16T07:46:39.258Z,2.40
2022-08-16T07:49:03.083Z,3.10
2022-08-16T07:51:38.022Z,2.50
2022-08-16T07:54:20.961Z,2.40
2022-08-16T07:56:51.199Z,2.50
2022-08-16T07:59:22.280Z,2.30
2022-08-16T08:01:53.927Z,2.60
2022-08-16T08:04:25.498Z,2.50
2022-08-16T08:07:02.197Z,2.50
2022-08-16T08:09:43.527Z,3.00
2022-08-16T08:12:32.695Z,2.60
2022-08-16T08:15:04.310Z,2.30
2022-08-16T08:17:43.170Z,2.70
2022-08-16T08:20:20.795Z,2.70
2022-08-16T08:22:59.937Z,2.90
2022-08-16T08:25:52.118Z,2.90
2022-08-16T08:28:21.919Z,2.70
2022-08-16T08:30:58.057Z,2.80
2022-08-16T08:33:32.651Z,2.50
2022-08-16T08:36:12.743Z,2.80
2022-08-16T08:38:53.406Z,2.10
2022-08-16T08:41:28.366Z,2.60
2022-08-16T08:44:00.449Z,2.90
2022-08-16T08:46:35.715Z,2.90
2022-08-16T08:49:08.981Z,2.60
2022-08-16T08:51:41.776Z,2.60
2022-08-16T08:54:12.020Z,2.50
2022-08-16T08:56:48.251Z,3.00
2022-08-16T08:59:20.069Z,2.70
2022-08-16T09:01:57.246Z,3.00
2022-08-16T09:04:30.152Z,2.50
2022-08-16T09:07:01.371Z,2.40
2022-08-16T09:09:33.690Z,2.70
2022-08-16T09:12:06.902Z,2.50
2022-08-16T09:14:50.844Z,2.80
2022-08-16T09:17:45.271Z,2.60
2022-08-16T09:20:16.495Z,2.40
2022-08-16T09:22:51.378Z,3.20
2022-08-16T09:25:33.482Z,2.50
2022-08-16T09:28:09.562Z,2.40
2022-08-16T09:30:44.365Z,3.00
2022-08-16T09:33:19.982Z,2.50
2022-08-16T09:35:52.875Z,2.70
2022-08-16T09:38:31.867Z,2.70
2022-08-16T09:41:14.547Z,2.90
2022-08-16T09:43:58.482Z,2.90
2022-08-16T09:46:44.418Z,2.40
2022-08-16T09:49:16.088Z,2.50
2022-08-16T09:51:57.195Z,2.40
2022-08-16T09:54:32.748Z,2.60
2022-08-16T09:57:03.031Z,2.60
2022-08-16T09:59:38.747Z,2.30
2022-08-16T10:02:26.654Z,2.80
2022-08-16T10:04:59.599Z,2.80
2022-08-16T10:07:55.832Z,2.80
2022-08-16T10:10:30.465Z,2.80
2022-08-16T10:13:16.196Z,2.80
2022-08-16T10:15:55.539Z,3.00
2022-08-16T10:18:56.811Z,2.60
2022-08-16T10:21:17.915Z,2.70
2022-08-16T10:23:49.615Z,2.30
2022-08-16T10:27:17.132Z,2.70
2022-08-16T10:29:20.054Z,2.60
2022-08-16T10:31:53.152Z,2.20
2022-08-16T10:34:32.313Z,3.20
2022-08-16T10:37:04.702Z,2.80
2022-08-16T10:39:41.476Z,2.90
2022-08-16T10:42:14.308Z,2.70
2022-08-16T10:44:53.377Z,2.60
2022-08-16T10:47:23.617Z,2.60
2022-08-16T10:49:53.134Z,2.90
2022-08-16T10:52:24.225Z,2.40
2022-08-16T10:55:43.703Z,2.90
2022-08-16T10:57:43.385Z,2.40
2022-08-16T11:00:20.817Z,2.40
2022-08-16T11:02:57.908Z,2.50
2022-08-16T11:05:59.158Z,2.40
2022-08-16T11:08:23.551Z,2.70
2022-08-16T11:11:12.799Z,2.60
2022-08-16T11:14:10.977Z,2.60
2022-08-16T11:19:28.392Z,2.70
2022-08-16T11:22:39.129Z,2.60
2022-08-16T11:25:11.783Z,2.60
2022-08-16T11:27:39.374Z,2.80
2022-08-16T11:30:12.166Z,2.70
2022-08-16T11:32:45.324Z,2.50
2022-08-16T11:35:43.064Z,2.60
2022-08-16T11:38:42.260Z,2.70
2022-08-16T11:41:11.106Z,2.70
2022-08-16T11:43:48.113Z,2.30
2022-08-16T11:46:42.948Z,2.70
2022-08-16T11:49:13.417Z,3.00
2022-08-16T11:51:45.366Z,2.60
2022-08-16T11:54:21.300Z,3.00
2022-08-16T11:56:57.191Z,2.60
2022-08-16T11:59:29.126Z,3.00
2022-08-16T12:02:30.639Z,2.80
2022-08-16T12:04:51.681Z,2.90
2022-08-16T12:07:23.643Z,2.70
2022-08-16T12:09:56.279Z,2.70
2022-08-16T12:12:25.505Z,2.40
2022-08-16T12:15:00.279Z,2.50
2022-08-16T12:17:32.940Z,3.10
2022-08-16T12:20:18.847Z,3.50
2022-08-16T12:22:49.451Z,2.70
2022-08-16T12:25:22.331Z,2.60
2022-08-16T12:27:53.312Z,2.30
2022-08-16T12:30:34.908Z,2.80
2022-08-16T12:33:11.623Z,2.40
2022-08-16T12:35:41.866Z,2.40
2022-08-16T12:38:41.352Z,2.60
2022-08-16T12:41:00.682Z,2.40
2022-08-16T12:43:32.416Z,2.60
2022-08-16T12:46:02.384Z,2.80
2022-08-16T12:48:53.118Z,2.70
2022-08-16T12:51:25.209Z,2.60
2022-08-16T12:54:05.560Z,2.90
2022-08-16T12:56:39.833Z,2.40
2022-08-16T12:59:20.221Z,2.60
2022-08-16T13:01:58.181Z,2.60
2022-08-16T13:04:34.193Z,2.70
2022-08-16T13:07:08.637Z,2.60
2022-08-16T13:09:48.830Z,3.00
2022-08-16T13:12:21.480Z,2.60
2022-08-16T13:14:52.338Z,2.50
2022-08-16T13:17:30.012Z,2.40
2022-08-16T13:20:11.228Z,2.80
2022-08-16T13:22:48.955Z,2.70
2022-08-16T13:25:24.760Z,2.70
2022-08-16T13:28:01.622Z,2.90
2022-08-16T13:30:42.489Z,2.50
2022-08-16T13:33:31.579Z,2.70
2022-08-16T13:36:02.857Z,2.90
2022-08-16T13:38:37.320Z,3.10
2022-08-16T13:41:13.558Z,2.40
2022-08-16T13:43:43.986Z,2.50
2022-08-16T13:46:27.072Z,3.40
2022-08-16T13:48:58.679Z,2.70
2022-08-16T13:51:31.048Z,2.80
2022-08-16T13:54:07.041Z,3.20
2022-08-16T13:56:39.773Z,2.80
2022-08-16T13:59:20.612Z,2.90
2022-08-16T14:01:56.453Z,3.00
2022-08-16T14:04:36.519Z,2.70
2022-08-16T14:07:12.285Z,3.00
2022-08-16T14:09:50.388Z,2.70
2022-08-16T14:12:33.045Z,3.10
2022-08-16T14:15:03.541Z,3.10
2022-08-16T14:18:15.548Z,3.00
2022-08-16T14:20:23.072Z,3.00
2022-08-16T14:22:54.702Z,3.00
2022-08-16T14:25:26.885Z,3.50
2022-08-16T14:27:56.311Z,3.10
2022-08-16T14:30:26.083Z,3.30
2022-08-16T14:32:56.051Z,2.70
2022-08-16T14:35:48.198Z,3.40
2022-08-16T14:38:24.067Z,3.20
2022-08-16T14:40:55.085Z,3.90
2022-08-16T14:43:29.714Z,4.60
2022-08-16T14:46:00.382Z,4.40
2022-08-16T14:48:31.101Z,5.30
2022-08-16T14:51:00.722Z,5.10
2022-08-16T14:53:32.807Z,4.30
2022-08-16T14:56:02.520Z,5.40
2022-08-16T14:58:36.887Z,4.80
2022-08-16T15:01:09.809Z,4.50
2022-08-16T15:03:42.372Z,5.60
2022-08-16T15:06:16.402Z,4.60
2022-08-16T15:08:46.032Z,4.70
2022-08-16T15:11:15.604Z,4.90
2022-08-16T15:13:49.517Z,3.80
2022-08-16T15:16:20.935Z,4.60
2022-08-16T15:18:59.883Z,3.90
2022-08-16T15:21:31.881Z,4.10
2022-08-16T15:24:04.239Z,4.20
2022-08-16T15:26:42.757Z,4.10
2022-08-16T15:29:14.683Z,4.10
2022-08-16T15:31:48.233Z,4.00
2022-08-16T15:34:22.127Z,4.50
2022-08-16T15:36:56.216Z,4.10
2022-08-16T15:39:38.943Z,3.70
2022-08-16T15:42:15.694Z,3.70
2022-08-16T15:44:58.631Z,4.00
2022-08-16T15:47:33.542Z,4.00
2022-08-16T15:50:04.874Z,4.20
2022-08-16T15:52:38.995Z,3.60
2022-08-16T15:55:23.779Z,3.20
2022-08-16T15:58:00.889Z,3.70
2022-08-16T16:00:50.198Z,4.00
2022-08-16T16:03:25.034Z,3.80
2022-08-16T16:06:00.252Z,3.90
2022-08-16T16:08:38.962Z,4.00
2022-08-16T16:11:11.370Z,3.90
2022-08-16T16:13:40.889Z,3.70
2022-08-16T16:16:16.594Z,4.10
2022-08-16T16:18:49.335Z,4.70
2022-08-16T16:21:20.177Z,3.80
2022-08-16T16:23:54.774Z,3.70
2022-08-16T16:26:28.931Z,3.50
2022-08-16T16:29:08.141Z,3.90
2022-08-16T16:31:59.952Z,4.90
2022-08-16T16:34:32.229Z,4.50
2022-08-16T16:37:03.643Z,4.30
2022-08-16T16:39:33.573Z,5.00
2022-08-16T16:42:04.173Z,5.40
2022-08-16T16:44:36.235Z,5.70
2022-08-16T16:47:07.868Z,5.50
2022-08-16T16:49:41.674Z,5.50
2022-08-16T16:52:44.304Z,6.00
2022-08-16T16:55:06.386Z,5.50
2022-08-16T16:57:54.377Z,5.60
2022-08-16T17:00:37.621Z,5.60
2022-08-16T17:03:17.253Z,5.90
2022-08-16T17:05:57.181Z,6.20
2022-08-16T17:08:33.361Z,6.40
2022-08-16T17:11:03.097Z,7.40
2022-08-16T17:13:33.863Z,7.40
2022-08-16T17:16:03.474Z,7.40
2022-08-16T17:19:15.494Z,7.80
2022-08-16T17:21:24.237Z,7.00
2022-08-16T17:23:58.561Z,7.40
2022-08-16T17:26:31.262Z,7.40
2022-08-16T17:29:11.090Z,7.50
2022-08-16T17:31:43.686Z,7.50
2022-08-16T17:34:30.178Z,7.30
2022-08-16T17:37:05.325Z,6.90
2022-08-16T17:39:54.861Z,7.80
2022-08-16T17:42:27.656Z,7.30
2022-08-16T17:44:57.292Z,6.90
2022-08-16T17:47:27.104Z,5.00
2022-08-16T17:49:56.340Z,4.60
2022-08-16T17:52:25.508Z,4.50
2022-08-16T17:54:54.663Z,6.00
2022-08-16T17:57:23.900Z,5.90
2022-08-16T17:59:53.968Z,5.40
2022-08-16T18:02:42.775Z,5.80
2022-08-16T18:05:17.041Z,4.60
2022-08-16T18:07:48.811Z,4.00
2022-08-16T18:10:32.595Z,4.10
2022-08-16T18:13:06.262Z,3.50
2022-08-16T18:15:38.841Z,3.60
2022-08-16T18:18:08.378Z,3.70
2022-08-16T18:20:56.736Z,3.80
2022-08-16T18:23:28.866Z,4.20
2022-08-16T18:26:02.841Z,3.30
2022-08-16T18:28:35.803Z,3.20
2022-08-16T18:31:08.233Z,3.30
2022-08-16T18:33:43.659Z,3.20
2022-08-16T18:36:20.021Z,3.10
2022-08-16T18:38:51.924Z,3.20
2022-08-16T18:41:23.496Z,2.80
2022-08-16T18:44:23.466Z,2.80
2022-08-16T18:46:48.905Z,2.90
2022-08-16T18:49:21.276Z,2.90
2022-08-16T18:51:51.831Z,2.80
2022-08-16T18:54:21.473Z,2.70
2022-08-16T18:56:56.100Z,3.00
2022-08-16T18:59:32.352Z,2.90
2022-08-16T19:02:04.546Z,2.90
2022-08-16T19:04:56.838Z,2.90
2022-08-16T19:07:30.859Z,3.10
2022-08-16T19:10:03.449Z,2.90
2022-08-16T19:12:38.295Z,2.80
2022-08-16T19:15:23.425Z,2.90
2022-08-16T19:17:53.235Z,3.00
2022-08-16T19:20:26.666Z,2.70
2022-08-16T19:23:05.586Z,3.10
2022-08-16T19:25:48.424Z,3.00
2022-08-16T19:28:51.474Z,3.20
2022-08-16T19:31:26.295Z,3.00
2022-08-16T19:33:58.415Z,3.20
2022-08-16T19:36:38.671Z,3.10
2022-08-16T19:39:12.819Z,3.50
2022-08-16T19:41:53.489Z,3.80
2022-08-16T19:44:25.769Z,3.60
2022-08-16T19:46:55.140Z,4.20
2022-08-16T19:49:24.524Z,3.60
2022-08-16T19:51:53.833Z,3.30
2022-08-16T19:54:23.129Z,3.70
2022-08-16T19:56:52.701Z,4.10
2022-08-16T19:59:39.221Z,3.70
2022-08-16T20:02:36.197Z,4.20
2022-08-16T20:05:10.413Z,4.20
2022-08-16T20:07:39.606Z,4.60
2022-08-16T20:10:12.062Z,5.30
2022-08-16T20:12:42.111Z,4.90
2022-08-16T20:15:22.321Z,9.10
2022-08-16T20:17:55.187Z,7.20
2022-08-16T20:20:29.456Z,7.70
2022-08-16T20:22:59.998Z,5.20
2022-08-16T20:25:34.448Z,5.20
2022-08-16T20:28:10.651Z,5.00
2022-08-16T20:30:39.955Z,4.90
2022-08-16T20:33:15.235Z,4.80
2022-08-16T20:35:45.931Z,4.50
2022-08-16T20:38:15.606Z,4.80
2022-08-16T20:40:45.166Z,4.80
2022-08-16T20:43:17.424Z,4.70
2022-08-16T20:45:48.883Z,4.30
2022-08-16T20:48:18.234Z,4.20
2022-08-16T20:50:47.875Z,4.00
2022-08-16T20:53:17.272Z,4.30
2022-08-16T20:55:46.662Z,4.40
2022-08-16T20:58:18.387Z,4.50
2022-08-16T21:00:48.458Z,4.60
2022-08-16T21:03:17.951Z,4.20
2022-08-16T21:05:47.692Z,4.60
2022-08-16T21:08:52.636Z,4.40
2022-08-16T21:11:08.533Z,4.80
2022-08-16T21:13:42.501Z,3.80
2022-08-16T21:16:12.389Z,4.50
2022-08-16T21:18:41.570Z,4.00
2022-08-16T21:21:11.024Z,3.60
2022-08-16T21:23:40.861Z,4.70
2022-08-16T21:26:11.038Z,4.40
2022-08-16T21:28:43.659Z,4.30
2022-08-16T21:31:17.485Z,4.80
2022-08-16T21:33:55.065Z,4.60
2022-08-16T21:36:35.099Z,4.40
2022-08-16T21:39:07.800Z,4.40
2022-08-16T21:41:39.504Z,4.60
2022-08-16T21:44:09.085Z,4.20
2022-08-16T21:46:38.239Z,4.00
2022-08-16T21:49:07.535Z,4.20
2022-08-16T21:51:37.257Z,4.10
2022-08-16T21:54:06.651Z,4.00
2022-08-16T21:56:36.154Z,4.30
2022-08-16T21:59:11.821Z,4.20
2022-08-16T22:01:44.364Z,4.30
2022-08-16T22:04:36.639Z,4.50
2022-08-16T22:07:07.627Z,4.00
2022-08-16T22:09:37.292Z,4.10
2022-08-16T22:12:08.544Z,7.90
2022-08-16T22:14:39.790Z,4.60
2022-08-16T22:17:09.538Z,4.00
2022-08-16T22:19:38.779Z,4.30
2022-08-16T22:22:08.663Z,4.00
2022-08-16T22:24:37.843Z,4.50
2022-08-16T22:27:07.278Z,4.30
2022-08-16T22:29:38.245Z,3.80
2022-08-16T22:32:11.694Z,4.20
2022-08-16T22:34:41.220Z,4.00
2022-08-16T22:37:10.412Z,3.80
2022-08-16T22:39:40.018Z,4.10
2022-08-16T22:42:11.744Z,3.40
2022-08-16T22:44:45.705Z,4.00
2022-08-16T22:47:15.822Z,3.70
2022-08-16T22:49:47.775Z,3.70
2022-08-16T22:52:50.792Z,3.60
2022-08-16T22:55:06.681Z,3.30
2022-08-16T22:57:36.015Z,3.40
2022-08-16T23:00:11.520Z,3.90
2022-08-16T23:03:08.118Z,3.70
2022-08-16T23:05:50.406Z,3.90
2022-08-16T23:08:38.374Z,3.70
2022-08-16T23:11:20.696Z,3.60
2022-08-16T23:13:54.191Z,3.40
2022-08-16T23:16:33.145Z,4.50
2022-08-16T23:19:14.256Z,3.70
2022-08-16T23:21:48.407Z,4.00
2022-08-16T23:24:23.159Z,3.10
2022-08-16T23:26:52.577Z,3.60
2022-08-16T23:29:26.514Z,3.40
2022-08-16T23:32:11.861Z,3.20
2022-08-16T23:34:41.156Z,4.00
2022-08-16T23:37:11.464Z,3.00
2022-08-16T23:39:40.793Z,3.10
2022-08-16T23:42:52.614Z,3.20
2022-08-16T23:45:08.215Z,3.20
2022-08-16T23:47:37.488Z,3.60
2022-08-16T23:50:07.080Z,3.10
2022-08-16T23:52:53.248Z,3.00
2022-08-16T23:55:25.178Z,3.40
2022-08-16T23:57:54.381Z,3.20
